createdAt,value
2022-08-17T00:01:51.999Z,100467.78
2022-08-17T00:06:50.869Z,100473.44
2022-08-17T00:12:43.683Z,100450.88
2022-08-17T00:17:09.860Z,100462.78
2022-08-17T00:22:34.870Z,100429.13
2022-08-17T00:27:24.563Z,100456.03
2022-08-17T00:33:15.572Z,100401.97
2022-08-17T00:37:39.170Z,100461.19
2022-08-17T00:42:37.101Z,100425.94
2022-08-17T00:47:34.861Z,100451.16
2022-08-17T00:52:37.119Z,100450.53
2022-08-17T00:57:40.435Z,100444.00
2022-08-17T01:02:42.917Z,100423.97
2022-08-17T01:07:40.640Z,100421.28
2022-08-17T01:12:38.440Z,100453.41
2022-08-17T01:17:36.075Z,100417.34
2022-08-17T01:22:33.742Z,100437.81
2022-08-17T01:27:32.009Z,100448.28
2022-08-17T01:32:30.217Z,100433.47
2022-08-17T01:37:36.249Z,100464.28
2022-08-17T01:42:39.851Z,100468.19
2022-08-17T01:47:38.436Z,100417.22
2022-08-17T01:52:35.880Z,100458.97
2022-08-17T01:57:34.051Z,100456.03
2022-08-17T02:02:32.990Z,100451.38
2022-08-17T02:07:30.041Z,100422.97
2022-08-17T02:12:39.416Z,100462.75
2022-08-17T02:17:39.981Z,100383.63
2022-08-17T02:22:39.572Z,100379.75
2022-08-17T02:27:37.829Z,100406.78
2022-08-17T02:32:35.744Z,100384.16
2022-08-17T02:37:35.173Z,100455.44
2022-08-17T02:42:37.742Z,100432.22
2022-08-17T02:47:45.071Z,100423.09
2022-08-17T02:52:45.079Z,100481.69
2022-08-17T02:57:53.233Z,100440.47
2022-08-17T03:02:51.676Z,100454.59
2022-08-17T03:07:49.953Z,100415.69
2022-08-17T03:12:47.628Z,100419.69
2022-08-17T03:17:44.840Z,100482.13
2022-08-17T03:22:53.068Z,100448.69
2022-08-17T03:27:52.014Z,100477.72
2022-08-17T03:32:54.641Z,100421.19
2022-08-17T03:38:00.556Z,100484.03
2022-08-17T03:43:04.466Z,100395.47
2022-08-17T03:48:19.962Z,100508.41
2022-08-17T03:53:37.429Z,100468.84
2022-08-17T03:58:36.921Z,100497.25
2022-08-17T04:03:34.808Z,100499.84
2022-08-17T04:08:32.715Z,100528.09
2022-08-17T04:13:29.702Z,100482.38
2022-08-17T04:18:27.545Z,100520.38
2022-08-17T04:23:34.125Z,100531.03
2022-08-17T04:28:31.161Z,100546.25
2022-08-17T04:33:30.446Z,100531.84
2022-08-17T04:44:56.502Z,100535.63
2022-08-17T04:49:56.240Z,100506.00
2022-08-17T04:54:56.080Z,100532.50
2022-08-17T04:59:56.189Z,100533.91
2022-08-17T05:04:57.797Z,100448.00
2022-08-17T05:09:55.947Z,100525.47
2022-08-17T05:14:53.841Z,100470.81
2022-08-17T05:20:19.511Z,100511.56
2022-08-17T05:25:31.657Z,100542.59
2022-08-17T05:30:36.158Z,100558.66
2022-08-17T05:36:41.658Z,100519.34
2022-08-17T05:42:17.200Z,100508.56
2022-08-17T05:47:21.849Z,100545.25
2022-08-17T05:52:28.435Z,100544.75
2022-08-17T05:58:13.018Z,100547.25
2022-08-17T06:03:41.399Z,100482.03
2022-08-17T12:05:36.318Z,100383.75
2022-08-17T12:11:02.058Z,100378.19
2022-08-17T12:16:00.581Z,100375.22
2022-08-17T12:21:23.564Z,100353.88
2022-08-17T12:26:25.567Z,100368.38
2022-08-17T12:31:28.334Z,100351.53
2022-08-17T12:36:31.270Z,100338.88
2022-08-17T12:41:38.734Z,100327.44
2022-08-17T12:52:45.691Z,100352.47
2022-08-17T12:57:45.464Z,100339.88
2022-08-17T13:02:49.463Z,100293.50
2022-08-17T13:08:01.542Z,100315.28
2022-08-17T13:13:03.936Z,100339.19
2022-08-17T13:18:07.569Z,100342.19
2022-08-17T13:23:20.997Z,100254.31
2022-08-17T13:28:30.755Z,100294.94
2022-08-17T13:33:44.743Z,100313.09
2022-08-17T13:38:51.574Z,100308.41
2022-08-17T13:43:54.970Z,100250.72
2022-08-17T13:49:05.235Z,100274.06
2022-08-17T13:54:50.775Z,100346.31
2022-08-17T14:00:07.516Z,100329.81
2022-08-17T14:05:06.542Z,100314.44
2022-08-17T14:10:12.880Z,100342.72
2022-08-17T14:15:19.892Z,100307.78
2022-08-17T14:20:20.823Z,100337.66
2022-08-17T14:25:21.564Z,100354.66
2022-08-17T14:30:19.654Z,100335.88
2022-08-17T14:35:16.804Z,100335.84
2022-08-17T14:40:53.712Z,100322.88
2022-08-17T14:51:47.032Z,100277.91
2022-08-17T14:56:46.658Z,100290.81
2022-08-17T15:01:54.855Z,100314.38
2022-08-17T15:06:59.838Z,100336.28
2022-08-17T15:11:59.752Z,100326.22
2022-08-17T15:16:57.556Z,100321.31
2022-08-17T15:21:54.921Z,100327.47
2022-08-17T15:26:55.053Z,100309.41
2022-08-17T15:31:52.001Z,100305.19
2022-08-17T15:36:49.756Z,100335.38
2022-08-17T15:41:58.132Z,100336.88
2022-08-17T15:46:55.790Z,100354.13
2022-08-17T15:51:53.485Z,100368.41
2022-08-17T15:57:22.346Z,100355.13
2022-08-17T16:03:45.220Z,100299.34
2022-08-17T16:07:52.926Z,100400.34
2022-08-17T16:12:51.060Z,100385.25
2022-08-17T16:17:51.289Z,100395.56
2022-08-17T16:23:00.592Z,100367.19
2022-08-17T16:28:06.849Z,100405.13
2022-08-17T16:33:16.371Z,100380.41
2022-08-17T16:38:14.210Z,100412.41
2022-08-17T16:43:35.285Z,100366.81
2022-08-17T16:48:33.012Z,100347.75
2022-08-17T16:53:30.796Z,100388.19
2022-08-17T16:58:53.924Z,100394.66
2022-08-17T17:03:58.214Z,100421.94
2022-08-17T17:09:00.297Z,100443.94
2022-08-17T17:14:15.269Z,100415.44
2022-08-17T17:19:26.343Z,100430.16
2022-08-17T17:24:40.471Z,100455.91
2022-08-17T17:29:55.869Z,100447.13
2022-08-17T17:35:01.605Z,100464.69
2022-08-17T17:40:06.984Z,100416.03
2022-08-17T17:45:11.899Z,100470.44
2022-08-17T17:50:10.024Z,100470.03
2022-08-17T17:55:20.456Z,100391.69
2022-08-17T18:00:41.222Z,100480.78
2022-08-17T18:06:13.431Z,100487.69
2022-08-17T18:11:34.740Z,100491.63
2022-08-17T18:16:33.007Z,100449.63
2022-08-17T18:21:37.301Z,100510.81
2022-08-17T18:26:51.357Z,100517.75
2022-08-17T18:32:11.029Z,100460.19
2022-08-17T18:37:11.807Z,100500.59
2022-08-17T18:42:27.305Z,100485.03
2022-08-17T18:47:26.273Z,100473.44
2022-08-17T18:52:27.091Z,100500.75
2022-08-17T18:57:31.727Z,100510.19
2022-08-17T19:02:53.007Z,100425.13
2022-08-17T19:07:50.308Z,100511.94
2022-08-17T19:12:55.088Z,100507.31
2022-08-17T19:18:04.522Z,100499.28
2022-08-17T19:23:13.212Z,100543.53
2022-08-17T19:28:22.526Z,100502.75
2022-08-17T19:33:19.734Z,100525.75
2022-08-17T19:38:29.133Z,100532.91
2022-08-17T19:43:39.854Z,100514.22
2022-08-17T19:48:58.961Z,100514.72
2022-08-17T19:54:06.386Z,100514.94
2022-08-17T19:59:13.230Z,100520.63
2022-08-17T20:04:19.518Z,100501.09
2022-08-17T20:09:23.037Z,100513.78
2022-08-17T20:14:51.717Z,100477.19
2022-08-17T20:19:57.708Z,100515.94
2022-08-17T20:25:05.748Z,100535.56
2022-08-17T20:30:09.832Z,100563.91
2022-08-17T20:35:23.204Z,100473.28
2022-08-17T20:40:26.822Z,100554.53
2022-08-17T20:45:55.934Z,100557.88
2022-08-17T20:50:58.383Z,100546.81
2022-08-17T20:55:55.392Z,100542.25
2022-08-17T21:01:13.345Z,100481.59
2022-08-17T21:06:17.521Z,100544.97
2022-08-17T21:12:03.262Z,100547.25
2022-08-17T21:17:14.355Z,100553.50
2022-08-17T21:22:27.960Z,100543.88
2022-08-17T21:27:40.447Z,100550.59
2022-08-17T21:32:41.806Z,100544.72
2022-08-17T21:37:41.966Z,100507.63
2022-08-17T21:42:47.248Z,100548.47
2022-08-17T21:47:49.861Z,100553.44
2022-08-17T21:52:49.124Z,100513.03
2022-08-17T21:58:13.378Z,100491.28
2022-08-17T22:03:21.075Z,100554.50
2022-08-17T22:08:20.257Z,100564.06
2022-08-17T22:13:22.139Z,100523.41
2022-08-17T22:18:26.893Z,100546.06
2022-08-17T22:23:45.325Z,100538.66
2022-08-17T22:28:48.800Z,100554.25
2022-08-17T22:33:50.444Z,100491.44
2022-08-17T22:38:47.681Z,100548.63
2022-08-17T22:43:47.764Z,100558.38
2022-08-17T22:48:51.240Z,100539.19
2022-08-17T22:54:09.209Z,100561.53
2022-08-17T22:59:21.910Z,100569.31
2022-08-17T23:04:36.621Z,100513.88
2022-08-17T23:09:34.068Z,100546.28
2022-08-17T23:14:31.144Z,100574.03
2022-08-17T23:19:30.758Z,100555.91
2022-08-17T23:24:30.889Z,100570.31
2022-08-17T23:29:28.776Z,100561.00
2022-08-17T23:34:27.451Z,100577.59
2022-08-17T23:39:28.168Z,100559.53
2022-08-17T23:44:26.482Z,100571.13
2022-08-17T23:49:24.555Z,100534.13
2022-08-17T23:54:24.446Z,100524.56
2022-08-17T23:59:23.132Z,100567.34
